sensor_id;sensor_type;location;lat;lon;timestamp;temperature;humidity
20773;DHT22;10546;50.674;4.616;2022-08-19T05:23:18;16.80;99.90
20773;DHT22;10546;50.674;4.616;2022-08-19T05:25:44;16.80;99.90
20773;DHT22;10546;50.674;4.616;2022-08-19T05:28:10;17.00;99.90
20773;DHT22;10546;50.674;4.616;2022-08-19T05:30:35;17.20;99.90
20773;DHT22;10546;50.674;4.616;2022-08-19T05:33:01;17.40;99.90
20773;DHT22;10546;50.674;4.616;2022-08-19T05:35:27;17.40;99.90
20773;DHT22;10546;50.674;4.616;2022-08-19T05:37:53;17.40;99.90
20773;DHT22;10546;50.674;4.616;2022-08-19T05:40:19;17.40;99.90
20773;DHT22;10546;50.674;4.616;2022-08-19T05:42:45;17.40;99.90
20773;DHT22;10546;50.674;4.616;2022-08-19T05:45:11;17.40;99.90
20773;DHT22;10546;50.674;4.616;2022-08-19T05:47:37;17.40;99.90
20773;DHT22;10546;50.674;4.616;2022-08-19T05:50:03;17.50;99.90
20773;DHT22;10546;50.674;4.616;2022-08-19T05:52:32;17.40;99.90
20773;DHT22;10546;50.674;4.616;2022-08-19T05:54:58;17.50;99.90
20773;DHT22;10546;50.674;4.616;2022-08-19T05:57:24;17.50;99.90
20773;DHT22;10546;50.674;4.616;2022-08-19T05:59:50;17.80;99.90
20773;DHT22;10546;50.674;4.616;2022-08-19T06:02:16;18.40;99.90
20773;DHT22;10546;50.674;4.616;2022-08-19T06:04:42;18.90;99.90
20773;DHT22;10546;50.674;4.616;2022-08-19T06:07:08;19.50;99.90
20773;DHT22;10546;50.674;4.616;2022-08-19T06:09:34;19.90;99.90
20773;DHT22;10546;50.674;4.616;2022-08-19T06:12:00;20.30;99.90
20773;DHT22;10546;50.674;4.616;2022-08-19T06:14:29;20.60;99.90
20773;DHT22;10546;50.674;4.616;2022-08-19T06:16:55;20.80;99.90
20773;DHT22;10546;50.674;4.616;2022-08-19T06:19:22;21.00;99.90
20773;DHT22;10546;50.674;4.616;2022-08-19T06:21:50;21.40;99.90
20773;DHT22;10546;50.674;4.616;2022-08-19T06:24:19;21.60;99.90
20773;DHT22;10546;50.674;4.616;2022-08-19T06:26:47;21.50;99.90
20773;DHT22;10546;50.674;4.616;2022-08-19T06:29:15;21.10;99.90
20773;DHT22;10546;50.674;4.616;2022-08-19T06:31:47;20.80;99.90
20773;DHT22;10546;50.674;4.616;2022-08-19T06:34:15;20.70;99.90
20773;DHT22;10546;50.674;4.616;2022-08-19T06:36:47;20.60;99.90
20773;DHT22;10546;50.674;4.616;2022-08-19T06:39:25;20.80;99.90
20773;DHT22;10546;50.674;4.616;2022-08-19T06:41:53;20.80;99.90
20773;DHT22;10546;50.674;4.616;2022-08-19T06:44:21;20.80;99.90
20773;DHT22;10546;50.674;4.616;2022-08-19T06:46:47;21.00;99.90
20773;DHT22;10546;50.674;4.616;2022-08-19T06:49:17;21.40;99.90
20773;DHT22;10546;50.674;4.616;2022-08-19T06:51:47;21.60;99.90
20773;DHT22;10546;50.674;4.616;2022-08-19T06:54:16;21.90;99.90
20773;DHT22;10546;50.674;4.616;2022-08-19T06:56:42;21.90;99.90
20773;DHT22;10546;50.674;4.616;2022-08-19T06:59:14;21.70;99.90
20773;DHT22;10546;50.674;4.616;2022-08-19T07:01:44;21.90;99.90
20773;DHT22;10546;50.674;4.616;2022-08-19T07:04:12;22.10;99.90
20773;DHT22;10546;50.674;4.616;2022-08-19T07:06:38;22.30;99.90
20773;DHT22;10546;50.674;4.616;2022-08-19T07:09:05;22.20;99.90
20773;DHT22;10546;50.674;4.616;2022-08-19T07:11:31;22.50;99.90
20773;DHT22;10546;50.674;4.616;2022-08-19T07:13:58;23.10;99.90
20773;DHT22;10546;50.674;4.616;2022-08-19T07:16:24;23.60;99.90
20773;DHT22;10546;50.674;4.616;2022-08-19T07:18:50;24.30;99.90
20773;DHT22;10546;50.674;4.616;2022-08-19T07:21:22;24.90;99.90
20773;DHT22;10546;50.674;4.616;2022-08-19T07:23:50;25.40;99.90
20773;DHT22;10546;50.674;4.616;2022-08-19T07:26:20;25.90;99.90
20773;DHT22;10546;50.674;4.616;2022-08-19T07:28:47;26.40;99.90
20773;DHT22;10546;50.674;4.616;2022-08-19T07:31:19;27.10;99.90
20773;DHT22;10546;50.674;4.616;2022-08-19T07:33:46;26.80;99.90
20773;DHT22;10546;50.674;4.616;2022-08-19T07:36:16;25.90;99.90
20773;DHT22;10546;50.674;4.616;2022-08-19T07:38:44;25.60;99.90
20773;DHT22;10546;50.674;4.616;2022-08-19T07:41:16;25.90;99.90
20773;DHT22;10546;50.674;4.616;2022-08-19T07:43:42;25.10;99.90
20773;DHT22;10546;50.674;4.616;2022-08-19T07:46:09;24.70;99.90
20773;DHT22;10546;50.674;4.616;2022-08-19T07:48:48;24.10;99.90
20773;DHT22;10546;50.674;4.616;2022-08-19T07:51:20;24.60;99.90
20773;DHT22;10546;50.674;4.616;2022-08-19T07:53:49;24.90;99.90
20773;DHT22;10546;50.674;4.616;2022-08-19T07:56:18;25.10;99.90
20773;DHT22;10546;50.674;4.616;2022-08-19T07:58:52;25.40;99.90
20773;DHT22;10546;50.674;4.616;2022-08-19T08:01:34;25.60;99.90
20773;DHT22;10546;50.674;4.616;2022-08-19T08:04:00;25.80;99.90
20773;DHT22;10546;50.674;4.616;2022-08-19T08:06:44;25.50;99.90
20773;DHT22;10546;50.674;4.616;2022-08-19T08:09:34;24.50;99.90
20773;DHT22;10546;50.674;4.616;2022-08-19T08:12:15;24.10;99.90
20773;DHT22;10546;50.674;4.616;2022-08-19T08:17:08;23.80;99.90
20773;DHT22;10546;50.674;4.616;2022-08-19T08:19:40;23.80;99.90
20773;DHT22;10546;50.674;4.616;2022-08-19T08:22:08;23.90;99.90
20773;DHT22;10546;50.674;4.616;2022-08-19T08:24:35;24.30;99.90
20773;DHT22;10546;50.674;4.616;2022-08-19T08:27:01;25.30;99.90
20773;DHT22;10546;50.674;4.616;2022-08-19T08:29:29;25.40;99.90
20773;DHT22;10546;50.674;4.616;2022-08-19T08:31:56;25.40;99.90
20773;DHT22;10546;50.674;4.616;2022-08-19T08:34:21;26.50;99.90
20773;DHT22;10546;50.674;4.616;2022-08-19T08:36:47;26.50;99.90
20773;DHT22;10546;50.674;4.616;2022-08-19T08:39:15;26.70;99.90
20773;DHT22;10546;50.674;4.616;2022-08-19T08:44:58;25.50;99.90
20773;DHT22;10546;50.674;4.616;2022-08-19T08:47:25;25.90;99.90
20773;DHT22;10546;50.674;4.616;2022-08-19T08:49:59;26.90;99.90
20773;DHT22;10546;50.674;4.616;2022-08-19T08:52:30;27.50;99.90
20773;DHT22;10546;50.674;4.616;2022-08-19T08:55:09;28.10;99.90
20773;DHT22;10546;50.674;4.616;2022-08-19T09:00:20;26.80;99.90
20773;DHT22;10546;50.674;4.616;2022-08-19T09:02:47;26.60;99.90
20773;DHT22;10546;50.674;4.616;2022-08-19T09:05:13;26.40;99.90
20773;DHT22;10546;50.674;4.616;2022-08-19T09:08:02;25.90;99.90
20773;DHT22;10546;50.674;4.616;2022-08-19T09:10:44;25.30;99.90
20773;DHT22;10546;50.674;4.616;2022-08-19T09:16:06;24.70;99.90
20773;DHT22;10546;50.674;4.616;2022-08-19T09:21:09;24.40;99.90
20773;DHT22;10546;50.674;4.616;2022-08-19T09:23:36;24.50;99.90
20773;DHT22;10546;50.674;4.616;2022-08-19T09:26:07;24.40;99.90
20773;DHT22;10546;50.674;4.616;2022-08-19T09:28:33;24.00;99.90
20773;DHT22;10546;50.674;4.616;2022-08-19T09:30:58;23.80;99.90
20773;DHT22;10546;50.674;4.616;2022-08-19T09:33:24;23.70;99.90
20773;DHT22;10546;50.674;4.616;2022-08-19T09:35:50;23.70;99.90
20773;DHT22;10546;50.674;4.616;2022-08-19T09:38:15;23.70;99.90
20773;DHT22;10546;50.674;4.616;2022-08-19T09:40:41;23.70;99.90
20773;DHT22;10546;50.674;4.616;2022-08-19T09:43:07;23.40;99.90
20773;DHT22;10546;50.674;4.616;2022-08-19T09:45:33;23.50;99.90
20773;DHT22;10546;50.674;4.616;2022-08-19T09:47:59;23.40;99.90
20773;DHT22;10546;50.674;4.616;2022-08-19T09:50:24;23.50;99.90
20773;DHT22;10546;50.674;4.616;2022-08-19T09:52:51;23.40;99.90
20773;DHT22;10546;50.674;4.616;2022-08-19T09:55:43;23.40;99.90
20773;DHT22;10546;50.674;4.616;2022-08-19T09:58:10;23.60;99.90
20773;DHT22;10546;50.674;4.616;2022-08-19T10:00:37;23.30;99.90
20773;DHT22;10546;50.674;4.616;2022-08-19T10:03:03;23.20;99.90
20773;DHT22;10546;50.674;4.616;2022-08-19T10:05:29;23.00;99.90
20773;DHT22;10546;50.674;4.616;2022-08-19T10:08:14;23.10;99.90
20773;DHT22;10546;50.674;4.616;2022-08-19T10:10:43;23.20;99.90
20773;DHT22;10546;50.674;4.616;2022-08-19T10:13:09;23.30;99.90
20773;DHT22;10546;50.674;4.616;2022-08-19T10:18:53;23.40;99.90
20773;DHT22;10546;50.674;4.616;2022-08-19T10:21:25;23.10;99.90
20773;DHT22;10546;50.674;4.616;2022-08-19T10:23:54;23.00;99.90
20773;DHT22;10546;50.674;4.616;2022-08-19T10:26:24;23.00;99.90
20773;DHT22;10546;50.674;4.616;2022-08-19T10:28:50;23.10;99.90
20773;DHT22;10546;50.674;4.616;2022-08-19T10:31:22;23.10;99.90
20773;DHT22;10546;50.674;4.616;2022-08-19T10:33:49;23.00;99.90
20773;DHT22;10546;50.674;4.616;2022-08-19T10:36:19;23.20;99.90
20773;DHT22;10546;50.674;4.616;2022-08-19T10:38:48;23.40;99.90
20773;DHT22;10546;50.674;4.616;2022-08-19T10:41:22;23.30;99.90
20773;DHT22;10546;50.674;4.616;2022-08-19T10:43:52;23.50;99.90
20773;DHT22;10546;50.674;4.616;2022-08-19T10:46:21;23.70;99.90
20773;DHT22;10546;50.674;4.616;2022-08-19T10:48:48;24.00;99.90
20773;DHT22;10546;50.674;4.616;2022-08-19T10:51:14;24.00;99.90
20773;DHT22;10546;50.674;4.616;2022-08-19T10:53:59;23.90;99.90
20773;DHT22;10546;50.674;4.616;2022-08-19T10:56:26;23.80;99.90
20773;DHT22;10546;50.674;4.616;2022-08-19T10:59:11;23.90;99.90
20773;DHT22;10546;50.674;4.616;2022-08-19T11:01:39;23.90;99.90
20773;DHT22;10546;50.674;4.616;2022-08-19T11:04:06;24.20;99.90
20773;DHT22;10546;50.674;4.616;2022-08-19T11:06:35;24.50;99.90
20773;DHT22;10546;50.674;4.616;2022-08-19T11:09:02;24.40;99.90
20773;DHT22;10546;50.674;4.616;2022-08-19T11:11:28;24.30;99.90
20773;DHT22;10546;50.674;4.616;2022-08-19T11:13:55;24.20;99.90
20773;DHT22;10546;50.674;4.616;2022-08-19T11:16:22;24.00;99.90
20773;DHT22;10546;50.674;4.616;2022-08-19T11:18:51;23.90;99.90
20773;DHT22;10546;50.674;4.616;2022-08-19T11:21:20;23.90;99.90
20773;DHT22;10546;50.674;4.616;2022-08-19T11:23:48;23.70;99.90
20773;DHT22;10546;50.674;4.616;2022-08-19T11:26:15;23.90;99.90
20773;DHT22;10546;50.674;4.616;2022-08-19T11:28:41;23.70;99.90
20773;DHT22;10546;50.674;4.616;2022-08-19T11:31:16;23.80;99.90
20773;DHT22;10546;50.674;4.616;2022-08-19T11:33:46;23.90;99.90
20773;DHT22;10546;50.674;4.616;2022-08-19T11:36:20;24.00;99.90
20773;DHT22;10546;50.674;4.616;2022-08-19T11:38:56;23.90;99.90
20773;DHT22;10546;50.674;4.616;2022-08-19T11:41:26;23.70;99.90
20773;DHT22;10546;50.674;4.616;2022-08-19T11:43:52;23.20;99.90
20773;DHT22;10546;50.674;4.616;2022-08-19T11:46:22;23.10;99.90
20773;DHT22;10546;50.674;4.616;2022-08-19T11:48:49;23.20;99.90
20773;DHT22;10546;50.674;4.616;2022-08-19T11:51:21;22.90;99.90
20773;DHT22;10546;50.674;4.616;2022-08-19T11:53:54;23.10;99.90
20773;DHT22;10546;50.674;4.616;2022-08-19T11:56:20;23.40;99.90
20773;DHT22;10546;50.674;4.616;2022-08-19T11:58:49;23.50;99.90
20773;DHT22;10546;50.674;4.616;2022-08-19T12:01:18;23.50;99.90
20773;DHT22;10546;50.674;4.616;2022-08-19T12:03:46;23.50;99.90
20773;DHT22;10546;50.674;4.616;2022-08-19T12:06:16;23.70;99.90
20773;DHT22;10546;50.674;4.616;2022-08-19T12:08:43;23.80;99.90
20773;DHT22;10546;50.674;4.616;2022-08-19T12:11:11;24.20;99.90
20773;DHT22;10546;50.674;4.616;2022-08-19T12:13:39;24.50;99.90
20773;DHT22;10546;50.674;4.616;2022-08-19T12:16:16;24.40;99.90
20773;DHT22;10546;50.674;4.616;2022-08-19T12:18:43;24.80;99.90
20773;DHT22;10546;50.674;4.616;2022-08-19T12:21:13;24.90;99.90
20773;DHT22;10546;50.674;4.616;2022-08-19T12:23:44;24.80;99.90
20773;DHT22;10546;50.674;4.616;2022-08-19T12:26:12;25.00;99.90
20773;DHT22;10546;50.674;4.616;2022-08-19T12:28:39;24.90;99.90
20773;DHT22;10546;50.674;4.616;2022-08-19T12:31:08;25.10;99.90
20773;DHT22;10546;50.674;4.616;2022-08-19T12:33:39;25.00;99.90
20773;DHT22;10546;50.674;4.616;2022-08-19T12:36:12;25.10;99.90
20773;DHT22;10546;50.674;4.616;2022-08-19T12:38:39;25.30;99.90
20773;DHT22;10546;50.674;4.616;2022-08-19T12:41:05;25.40;99.90
20773;DHT22;10546;50.674;4.616;2022-08-19T12:43:35;25.50;99.90
20773;DHT22;10546;50.674;4.616;2022-08-19T12:46:02;25.60;99.90
20773;DHT22;10546;50.674;4.616;2022-08-19T12:48:29;25.70;99.90
20773;DHT22;10546;50.674;4.616;2022-08-19T12:51:17;25.60;99.90
20773;DHT22;10546;50.674;4.616;2022-08-19T12:53:49;25.60;99.90
20773;DHT22;10546;50.674;4.616;2022-08-19T12:56:19;25.90;99.90
20773;DHT22;10546;50.674;4.616;2022-08-19T12:58:49;26.40;99.90
20773;DHT22;10546;50.674;4.616;2022-08-19T13:01:16;26.70;99.90
20773;DHT22;10546;50.674;4.616;2022-08-19T13:03:44;27.10;99.90
20773;DHT22;10546;50.674;4.616;2022-08-19T13:06:10;27.20;99.90
20773;DHT22;10546;50.674;4.616;2022-08-19T13:08:36;27.10;99.90
20773;DHT22;10546;50.674;4.616;2022-08-19T13:11:13;26.70;99.90
20773;DHT22;10546;50.674;4.616;2022-08-19T13:13:41;26.60;99.90
20773;DHT22;10546;50.674;4.616;2022-08-19T13:16:10;26.80;99.90
20773;DHT22;10546;50.674;4.616;2022-08-19T13:18:37;26.80;99.90
20773;DHT22;10546;50.674;4.616;2022-08-19T13:21:05;26.60;99.90
20773;DHT22;10546;50.674;4.616;2022-08-19T13:23:37;26.80;99.90
20773;DHT22;10546;50.674;4.616;2022-08-19T13:26:06;27.00;99.90
20773;DHT22;10546;50.674;4.616;2022-08-19T13:28:35;26.90;99.90
20773;DHT22;10546;50.674;4.616;2022-08-19T13:31:21;27.10;99.90
20773;DHT22;10546;50.674;4.616;2022-08-19T13:34:08;27.20;99.90
20773;DHT22;10546;50.674;4.616;2022-08-19T13:36:39;27.20;99.90
20773;DHT22;10546;50.674;4.616;2022-08-19T13:39:12;27.30;99.90
20773;DHT22;10546;50.674;4.616;2022-08-19T13:41:43;27.10;99.90
20773;DHT22;10546;50.674;4.616;2022-08-19T13:44:14;27.00;99.90
20773;DHT22;10546;50.674;4.616;2022-08-19T13:46:51;26.90;99.90
20773;DHT22;10546;50.674;4.616;2022-08-19T13:49:20;26.90;99.90
20773;DHT22;10546;50.674;4.616;2022-08-19T13:51:49;26.60;99.90
20773;DHT22;10546;50.674;4.616;2022-08-19T13:54:15;26.40;99.90
20773;DHT22;10546;50.674;4.616;2022-08-19T13:56:47;26.30;99.90
20773;DHT22;10546;50.674;4.616;2022-08-19T13:59:13;26.20;99.90
20773;DHT22;10546;50.674;4.616;2022-08-19T14:01:45;26.60;99.90
20773;DHT22;10546;50.674;4.616;2022-08-19T14:04:14;26.80;99.90
20773;DHT22;10546;50.674;4.616;2022-08-19T14:06:39;26.90;99.90
20773;DHT22;10546;50.674;4.616;2022-08-19T14:09:05;26.80;99.90
20773;DHT22;10546;50.674;4.616;2022-08-19T14:11:31;26.80;99.90
20773;DHT22;10546;50.674;4.616;2022-08-19T14:13:56;26.50;99.90
20773;DHT22;10546;50.674;4.616;2022-08-19T14:16:22;26.50;99.90
20773;DHT22;10546;50.674;4.616;2022-08-19T14:18:50;26.20;99.90
20773;DHT22;10546;50.674;4.616;2022-08-19T14:21:22;26.30;99.90
20773;DHT22;10546;50.674;4.616;2022-08-19T14:23:49;26.30;99.90
20773;DHT22;10546;50.674;4.616;2022-08-19T14:26:18;26.30;99.90
20773;DHT22;10546;50.674;4.616;2022-08-19T14:28:44;26.40;99.90
20773;DHT22;10546;50.674;4.616;2022-08-19T14:31:12;26.30;99.90
20773;DHT22;10546;50.674;4.616;2022-08-19T14:33:39;26.20;99.90
20773;DHT22;10546;50.674;4.616;2022-08-19T14:36:05;26.00;99.90
20773;DHT22;10546;50.674;4.616;2022-08-19T14:38:31;25.70;99.90
20773;DHT22;10546;50.674;4.616;2022-08-19T14:41:16;25.30;99.90
20773;DHT22;10546;50.674;4.616;2022-08-19T14:43:44;24.70;99.90
20773;DHT22;10546;50.674;4.616;2022-08-19T14:46:16;24.40;99.90
20773;DHT22;10546;50.674;4.616;2022-08-19T14:48:58;24.30;99.90
20773;DHT22;10546;50.674;4.616;2022-08-19T14:51:31;24.20;99.90
20773;DHT22;10546;50.674;4.616;2022-08-19T14:54:15;24.00;99.90
20773;DHT22;10546;50.674;4.616;2022-08-19T14:57:25;23.70;99.90
20773;DHT22;10546;50.674;4.616;2022-08-19T15:00:17;23.40;99.90
20773;DHT22;10546;50.674;4.616;2022-08-19T15:03:03;23.10;99.90
20773;DHT22;10546;50.674;4.616;2022-08-19T15:06:06;23.10;99.90
20773;DHT22;10546;50.674;4.616;2022-08-19T15:12:07;23.50;99.90
20773;DHT22;10546;50.674;4.616;2022-08-19T15:14:41;23.50;99.90
20773;DHT22;10546;50.674;4.616;2022-08-19T15:17:32;23.80;99.90
20773;DHT22;10546;50.674;4.616;2022-08-19T15:20:59;23.90;99.90
20773;DHT22;10546;50.674;4.616;2022-08-19T15:23:36;24.10;99.90
20773;DHT22;10546;50.674;4.616;2022-08-19T15:32:43;25.30;99.90
20773;DHT22;10546;50.674;4.616;2022-08-19T15:35:09;25.00;99.90
20773;DHT22;10546;50.674;4.616;2022-08-19T15:37:37;25.00;99.90
20773;DHT22;10546;50.674;4.616;2022-08-19T15:40:06;25.10;99.90
20773;DHT22;10546;50.674;4.616;2022-08-19T15:45:37;24.70;99.90
20773;DHT22;10546;50.674;4.616;2022-08-19T15:48:10;24.50;99.90
20773;DHT22;10546;50.674;4.616;2022-08-19T15:50:36;24.40;99.90
20773;DHT22;10546;50.674;4.616;2022-08-19T15:53:09;24.40;99.90
20773;DHT22;10546;50.674;4.616;2022-08-19T15:55:59;24.30;99.90
20773;DHT22;10546;50.674;4.616;2022-08-19T15:59:07;24.00;99.90
20773;DHT22;10546;50.674;4.616;2022-08-19T16:05:25;24.00;99.90
20773;DHT22;10546;50.674;4.616;2022-08-19T16:08:10;24.20;99.90
20773;DHT22;10546;50.674;4.616;2022-08-19T16:10:37;24.30;99.90
20773;DHT22;10546;50.674;4.616;2022-08-19T16:13:32;24.20;99.90
20773;DHT22;10546;50.674;4.616;2022-08-19T16:15:58;24.00;99.90
20773;DHT22;10546;50.674;4.616;2022-08-19T16:18:24;23.80;99.90
20773;DHT22;10546;50.674;4.616;2022-08-19T16:20:53;23.80;99.90
20773;DHT22;10546;50.674;4.616;2022-08-19T16:23:19;23.70;99.90
20773;DHT22;10546;50.674;4.616;2022-08-19T16:25:45;23.50;99.90
20773;DHT22;10546;50.674;4.616;2022-08-19T16:28:11;23.50;99.90
20773;DHT22;10546;50.674;4.616;2022-08-19T16:30:45;23.60;99.90
20773;DHT22;10546;50.674;4.616;2022-08-19T16:33:10;23.80;99.90
20773;DHT22;10546;50.674;4.616;2022-08-19T16:35:36;23.80;99.90
20773;DHT22;10546;50.674;4.616;2022-08-19T16:38:03;23.80;99.90
20773;DHT22;10546;50.674;4.616;2022-08-19T16:40:29;23.80;99.90
20773;DHT22;10546;50.674;4.616;2022-08-19T16:42:54;24.00;99.90
20773;DHT22;10546;50.674;4.616;2022-08-19T16:45:20;24.00;99.90
20773;DHT22;10546;50.674;4.616;2022-08-19T16:47:46;24.00;99.90
20773;DHT22;10546;50.674;4.616;2022-08-19T16:50:12;23.90;99.90
20773;DHT22;10546;50.674;4.616;2022-08-19T16:52:38;24.00;99.90
20773;DHT22;10546;50.674;4.616;2022-08-19T16:55:05;24.00;99.90
20773;DHT22;10546;50.674;4.616;2022-08-19T16:57:32;24.00;99.90
20773;DHT22;10546;50.674;4.616;2022-08-19T16:59:58;23.80;99.90
20773;DHT22;10546;50.674;4.616;2022-08-19T17:02:23;23.60;99.90
20773;DHT22;10546;50.674;4.616;2022-08-19T17:04:52;23.70;99.90
20773;DHT22;10546;50.674;4.616;2022-08-19T17:07:39;23.80;99.90
20773;DHT22;10546;50.674;4.616;2022-08-19T17:10:05;23.80;99.90
20773;DHT22;10546;50.674;4.616;2022-08-19T17:12:32;23.90;99.90
20773;DHT22;10546;50.674;4.616;2022-08-19T17:15:00;23.80;99.90
20773;DHT22;10546;50.674;4.616;2022-08-19T17:17:27;23.80;99.90
20773;DHT22;10546;50.674;4.616;2022-08-19T17:19:53;23.80;99.90
20773;DHT22;10546;50.674;4.616;2022-08-19T17:22:18;23.60;99.90
20773;DHT22;10546;50.674;4.616;2022-08-19T17:24:44;23.50;99.90
20773;DHT22;10546;50.674;4.616;2022-08-19T17:27:10;23.50;99.90
20773;DHT22;10546;50.674;4.616;2022-08-19T17:29:36;23.50;99.90
20773;DHT22;10546;50.674;4.616;2022-08-19T17:32:04;23.60;99.90
20773;DHT22;10546;50.674;4.616;2022-08-19T17:34:32;23.50;99.90
20773;DHT22;10546;50.674;4.616;2022-08-19T17:36:58;23.40;99.90
20773;DHT22;10546;50.674;4.616;2022-08-19T17:39:32;23.40;99.90
20773;DHT22;10546;50.674;4.616;2022-08-19T17:41:59;23.50;99.90
20773;DHT22;10546;50.674;4.616;2022-08-19T17:44:25;23.30;99.90
20773;DHT22;10546;50.674;4.616;2022-08-19T17:46:50;23.10;99.90
20773;DHT22;10546;50.674;4.616;2022-08-19T17:49:17;23.00;99.90
20773;DHT22;10546;50.674;4.616;2022-08-19T17:51:45;23.00;99.90
20773;DHT22;10546;50.674;4.616;2022-08-19T17:54:14;23.00;99.90
20773;DHT22;10546;50.674;4.616;2022-08-19T17:56:40;23.20;99.90
20773;DHT22;10546;50.674;4.616;2022-08-19T17:59:07;23.10;99.90
20773;DHT22;10546;50.674;4.616;2022-08-19T18:01:33;22.90;99.90
20773;DHT22;10546;50.674;4.616;2022-08-19T18:03:59;22.90;99.90
20773;DHT22;10546;50.674;4.616;2022-08-19T18:06:26;22.90;99.90
20773;DHT22;10546;50.674;4.616;2022-08-19T18:08:53;22.80;99.90
20773;DHT22;10546;50.674;4.616;2022-08-19T18:11:19;22.70;99.90
20773;DHT22;10546;50.674;4.616;2022-08-19T18:13:45;22.60;99.90
20773;DHT22;10546;50.674;4.616;2022-08-19T18:16:11;22.60;99.90
20773;DHT22;10546;50.674;4.616;2022-08-19T18:18:38;22.60;99.90
20773;DHT22;10546;50.674;4.616;2022-08-19T18:21:05;22.70;99.90
20773;DHT22;10546;50.674;4.616;2022-08-19T18:23:31;22.80;99.90
20773;DHT22;10546;50.674;4.616;2022-08-19T18:25:58;22.70;99.90
20773;DHT22;10546;50.674;4.616;2022-08-19T18:28:24;22.60;99.90
20773;DHT22;10546;50.674;4.616;2022-08-19T18:30:50;22.60;99.90
20773;DHT22;10546;50.674;4.616;2022-08-19T18:33:16;22.60;99.90
20773;DHT22;10546;50.674;4.616;2022-08-19T18:35:45;22.50;99.90
20773;DHT22;10546;50.674;4.616;2022-08-19T18:38:16;22.50;99.90
20773;DHT22;10546;50.674;4.616;2022-08-19T18:41:01;22.40;99.90
20773;DHT22;10546;50.674;4.616;2022-08-19T18:43:46;22.30;99.90
20773;DHT22;10546;50.674;4.616;2022-08-19T18:46:30;22.30;99.90
20773;DHT22;10546;50.674;4.616;2022-08-19T18:49:27;22.30;99.90
20773;DHT22;10546;50.674;4.616;2022-08-19T18:51:53;22.40;99.90
20773;DHT22;10546;50.674;4.616;2022-08-19T18:54:20;22.30;99.90
20773;DHT22;10546;50.674;4.616;2022-08-19T18:56:46;22.40;99.90
20773;DHT22;10546;50.674;4.616;2022-08-19T18:59:12;22.50;99.90
20773;DHT22;10546;50.674;4.616;2022-08-19T19:01:42;22.40;99.90
20773;DHT22;10546;50.674;4.616;2022-08-19T19:04:16;22.30;99.90
20773;DHT22;10546;50.674;4.616;2022-08-19T19:06:42;22.10;99.90
20773;DHT22;10546;50.674;4.616;2022-08-19T19:09:10;22.20;99.90
20773;DHT22;10546;50.674;4.616;2022-08-19T19:11:40;22.20;99.90
20773;DHT22;10546;50.674;4.616;2022-08-19T19:14:10;22.20;99.90
20773;DHT22;10546;50.674;4.616;2022-08-19T19:16:38;22.20;99.90
20773;DHT22;10546;50.674;4.616;2022-08-19T19:19:04;22.20;99.90
20773;DHT22;10546;50.674;4.616;2022-08-19T19:21:40;22.20;99.90
20773;DHT22;10546;50.674;4.616;2022-08-19T19:24:32;22.10;99.90
20773;DHT22;10546;50.674;4.616;2022-08-19T19:27:00;22.00;99.90
20773;DHT22;10546;50.674;4.616;2022-08-19T19:29:29;21.90;99.90
20773;DHT22;10546;50.674;4.616;2022-08-19T19:31:55;21.80;99.90
20773;DHT22;10546;50.674;4.616;2022-08-19T19:34:21;21.70;99.90
20773;DHT22;10546;50.674;4.616;2022-08-19T19:36:49;21.70;99.90
20773;DHT22;10546;50.674;4.616;2022-08-19T19:39:16;21.60;99.90
20773;DHT22;10546;50.674;4.616;2022-08-19T19:41:42;21.60;99.90
20773;DHT22;10546;50.674;4.616;2022-08-19T19:44:09;21.50;99.90
20773;DHT22;10546;50.674;4.616;2022-08-19T19:46:37;21.50;99.90
20773;DHT22;10546;50.674;4.616;2022-08-19T19:49:04;21.60;99.90
20773;DHT22;10546;50.674;4.616;2022-08-19T19:51:30;21.50;99.90
20773;DHT22;10546;50.674;4.616;2022-08-19T19:53:57;21.40;99.90
20773;DHT22;10546;50.674;4.616;2022-08-19T19:56:23;21.40;99.90
20773;DHT22;10546;50.674;4.616;2022-08-19T19:58:52;21.20;99.90
20773;DHT22;10546;50.674;4.616;2022-08-19T20:01:19;21.30;99.90
20773;DHT22;10546;50.674;4.616;2022-08-19T20:03:46;21.20;99.90
20773;DHT22;10546;50.674;4.616;2022-08-19T20:06:14;21.10;99.90
20773;DHT22;10546;50.674;4.616;2022-08-19T20:08:40;21.20;99.90
20773;DHT22;10546;50.674;4.616;2022-08-19T20:11:45;21.20;99.90
20773;DHT22;10546;50.674;4.616;2022-08-19T20:14:17;21.20;99.90
20773;DHT22;10546;50.674;4.616;2022-08-19T20:16:44;21.10;99.90
20773;DHT22;10546;50.674;4.616;2022-08-19T20:19:12;21.20;99.90
20773;DHT22;10546;50.674;4.616;2022-08-19T20:21:40;21.20;99.90
20773;DHT22;10546;50.674;4.616;2022-08-19T20:24:13;21.30;99.90
20773;DHT22;10546;50.674;4.616;2022-08-19T20:26:41;21.30;99.90
20773;DHT22;10546;50.674;4.616;2022-08-19T20:29:07;21.30;99.90
20773;DHT22;10546;50.674;4.616;2022-08-19T20:31:32;21.30;99.90
20773;DHT22;10546;50.674;4.616;2022-08-19T20:33:59;21.20;99.90
20773;DHT22;10546;50.674;4.616;2022-08-19T20:36:24;21.20;99.90
20773;DHT22;10546;50.674;4.616;2022-08-19T20:38:51;21.10;99.90
20773;DHT22;10546;50.674;4.616;2022-08-19T20:41:17;21.10;99.90
20773;DHT22;10546;50.674;4.616;2022-08-19T20:43:45;21.10;99.90
20773;DHT22;10546;50.674;4.616;2022-08-19T20:46:11;21.10;99.90
20773;DHT22;10546;50.674;4.616;2022-08-19T20:48:37;21.00;99.90
20773;DHT22;10546;50.674;4.616;2022-08-19T20:51:04;20.90;99.90
20773;DHT22;10546;50.674;4.616;2022-08-19T20:53:31;20.80;99.90
20773;DHT22;10546;50.674;4.616;2022-08-19T20:55:56;20.80;99.90
20773;DHT22;10546;50.674;4.616;2022-08-19T20:58:23;20.90;99.90
20773;DHT22;10546;50.674;4.616;2022-08-19T21:00:51;20.90;99.90
20773;DHT22;10546;50.674;4.616;2022-08-19T21:03:20;20.80;99.90
20773;DHT22;10546;50.674;4.616;2022-08-19T21:05:47;20.90;99.90
20773;DHT22;10546;50.674;4.616;2022-08-19T21:08:14;20.80;99.90
20773;DHT22;10546;50.674;4.616;2022-08-19T21:10:41;21.00;99.90
20773;DHT22;10546;50.674;4.616;2022-08-19T21:13:09;21.00;99.90
20773;DHT22;10546;50.674;4.616;2022-08-19T21:15:34;20.90;99.90
20773;DHT22;10546;50.674;4.616;2022-08-19T21:18:04;20.90;99.90
20773;DHT22;10546;50.674;4.616;2022-08-19T21:20:29;20.90;99.90
20773;DHT22;10546;50.674;4.616;2022-08-19T21:22:55;20.80;99.90
20773;DHT22;10546;50.674;4.616;2022-08-19T21:25:21;20.70;99.90
20773;DHT22;10546;50.674;4.616;2022-08-19T21:27:46;20.70;99.90
20773;DHT22;10546;50.674;4.616;2022-08-19T21:30:12;20.80;99.90
20773;DHT22;10546;50.674;4.616;2022-08-19T21:32:38;20.80;99.90
20773;DHT22;10546;50.674;4.616;2022-08-19T21:35:04;20.70;99.90
20773;DHT22;10546;50.674;4.616;2022-08-19T21:37:30;20.70;99.90
20773;DHT22;10546;50.674;4.616;2022-08-19T21:39:59;20.70;99.90
20773;DHT22;10546;50.674;4.616;2022-08-19T21:42:24;20.70;99.90